Time;durP1;ratioP1;P1;durP2;ratioP2;P2;SDS_P1;SDS_P2;PMS_P1;PMS_P2;Temp;Humidity;BMP_temperature;BMP_pressure;BME280_temperature;BME280_humidity;BME280_pressure;Samples;Min_cycle;Max_cycle;Signal;HPM_P1;HPM_P2
2022/05/28 00:01:27;;;;;;;1.55;1.10;;;;;;;17.92;56.90;97112.25;10449612;28;20496;-22
2022/05/28 00:06:29;;;;;;;2.73;1.33;;;;;;;17.91;56.94;97098.72;10480758;28;20035;-22
2022/05/28 00:11:33;;;;;;;3.67;1.23;;;;;;;17.91;57.14;97090.28;10470926;28;20040;-22
2022/05/28 00:16:35;;;;;;;1.58;1.00;;;;;;;18.01;56.65;97081.91;10449645;28;20040;-22
2022/05/28 00:21:35;;;;;;;1.98;0.90;;;;;;;18.05;56.43;97083.63;10484344;28;20449;-23
2022/05/28 00:26:36;;;;;;;1.23;1.08;;;;;;;17.97;56.76;97085.25;10468990;28;20112;-23
2022/05/28 00:31:36;;;;;;;2.20;1.38;;;;;;;17.93;56.86;97070.88;10449108;28;20025;-22
2022/05/28 00:36:37;;;;;;;2.85;0.95;;;;;;;17.90;56.57;97069.16;10488188;28;20098;-23
2022/05/28 00:41:37;;;;;;;1.10;0.83;;;;;;;17.87;56.64;97066.63;10475133;28;20036;-23
2022/05/28 00:46:38;;;;;;;2.08;1.00;;;;;;;17.87;56.77;97060.69;10455837;28;20036;-23
2022/05/28 00:51:45;;;;;;;1.52;1.00;;;;;;;17.84;56.79;97058.97;10458121;28;20033;-21
2022/05/28 00:56:46;;;;;;;2.42;1.23;;;;;;;17.86;56.90;97056.47;10476749;28;20544;-22
2022/05/28 01:01:47;;;;;;;3.13;0.95;;;;;;;17.84;56.75;97064.03;10496480;28;20089;-22
2022/05/28 01:07:09;;;;;;;1.10;1.00;;;;;;;17.80;56.92;97056.41;10466987;28;20491;-22
2022/05/28 01:12:20;;;;;;;1.92;1.13;;;;;;;17.96;56.68;97065.81;10455156;28;20298;-23
2022/05/28 01:17:28;;;;;;;2.40;1.23;;;;;;;18.03;56.31;97054.91;10456192;28;20029;-21
2022/05/28 01:22:50;;;;;;;2.13;1.33;;;;;;;17.94;56.52;97050.63;10496042;28;20044;-22
2022/05/28 01:28:14;;;;;;;1.42;1.20;;;;;;;17.89;56.88;97043.81;10465079;28;20092;-23
2022/05/28 01:33:16;;;;;;;1.33;1.23;;;;;;;17.85;56.81;97032.84;10454243;28;20040;-23
2022/05/28 01:38:19;;;;;;;1.38;1.27;;;;;;;17.87;56.98;97032.81;10476984;28;20032;-22
2022/05/28 01:43:21;;;;;;;1.73;1.30;;;;;;;17.84;57.06;97030.28;10492339;28;20033;-23
2022/05/28 01:48:23;;;;;;;1.30;1.20;;;;;;;17.82;57.02;97015.06;10493816;28;20541;-23
2022/05/28 01:58:44;;;;;;;2.60;1.35;;;;;;;17.82;57.09;97009.16;10492061;28;20417;-23
2022/05/28 02:03:48;;;;;;;3.70;1.20;;;;;;;17.84;57.20;97013.38;10481488;28;20052;-22
2022/05/28 02:08:50;;;;;;;2.50;1.15;;;;;;;17.97;56.77;97001.66;10453602;28;20814;-26
2022/05/28 02:14:16;;;;;;;2.53;1.10;;;;;;;17.98;56.81;96996.59;10452891;28;20037;-22
2022/05/28 02:19:30;;;;;;;1.10;1.00;;;;;;;17.88;57.10;96992.31;10453267;28;20037;-23
2022/05/28 02:24:55;;;;;;;1.73;1.25;;;;;;;17.87;57.09;96987.22;10455136;28;20105;-23
2022/05/28 02:30:00;;;;;;;2.00;1.13;;;;;;;17.79;57.46;96991.41;10494101;28;20281;-24
2022/05/28 02:35:00;;;;;;;2.75;1.58;;;;;;;17.84;57.32;96977.91;10485165;28;20102;-24
2022/05/28 02:40:01;;;;;;;3.08;1.50;;;;;;;17.82;57.37;96984.66;10452121;28;20099;-22
2022/05/28 02:45:02;;;;;;;1.77;1.10;;;;;;;17.81;57.30;96982.97;10451750;28;20090;-23
2022/05/28 02:50:02;;;;;;;1.77;1.10;;;;;;;17.76;57.57;96981.25;10458485;28;20514;-22
2022/05/28 02:55:03;;;;;;;1.88;1.38;;;;;;;17.81;57.57;96982.13;10450980;28;20386;-22
2022/05/28 03:00:06;;;;;;;1.65;1.42;;;;;;;17.81;57.52;96987.19;10451336;28;20445;-23
2022/05/28 03:05:07;;;;;;;1.33;1.17;;;;;;;17.89;57.50;96983.03;10467844;28;20487;-22
2022/05/28 03:10:09;;;;;;;3.95;1.50;;;;;;;17.89;57.08;96971.22;10483843;28;20036;-22
2022/05/28 03:15:11;;;;;;;1.23;1.13;;;;;;;17.90;57.19;96982.22;10462242;28;20040;-23
2022/05/28 03:20:12;;;;;;;1.45;1.35;;;;;;;17.90;57.20;96990.63;10490951;28;20533;-22
2022/05/28 03:25:12;;;;;;;1.80;1.33;;;;;;;17.89;57.44;96993.16;10467695;28;20029;-23
2022/05/28 03:30:13;;;;;;;2.33;1.13;;;;;;;17.87;57.15;96987.22;10450558;28;20037;-22
2022/05/28 03:35:13;;;;;;;3.13;1.20;;;;;;;17.84;57.15;96983.00;10449856;28;20785;-22
2022/05/28 03:40:14;;;;;;;1.43;1.00;;;;;;;17.85;57.00;97006.66;10449230;28;20029;-22
2022/05/28 03:45:14;;;;;;;1.63;1.30;;;;;;;17.85;57.10;96993.97;10449085;28;20158;-23
2022/05/28 03:50:14;;;;;;;3.07;1.20;;;;;;;17.83;56.49;97000.72;10468793;28;20552;-22
2022/05/28 03:55:15;;;;;;;2.30;1.50;;;;;;;17.81;56.93;96999.84;10480580;28;20295;-22
2022/05/28 04:00:16;;;;;;;2.88;1.48;;;;;;;17.94;56.46;96999.09;10449165;28;20025;-23
2022/05/28 04:05:17;;;;;;;2.70;1.50;;;;;;;18.01;56.71;97000.84;10472217;28;20054;-22
2022/05/28 04:10:18;;;;;;;3.88;1.30;;;;;;;17.89;56.16;96990.63;10480431;28;20042;-22
2022/05/28 04:15:19;;;;;;;2.47;1.77;;;;;;;17.88;56.43;97012.59;10452307;28;20402;-24
2022/05/28 04:20:19;;;;;;;1.92;1.55;;;;;;;17.86;56.58;97023.53;10467205;28;20035;-23
2022/05/28 04:25:19;;;;;;;2.45;1.50;;;;;;;17.81;56.52;97008.31;10457398;28;20119;-23
2022/05/28 04:30:20;;;;;;;2.67;1.23;;;;;;;17.79;56.58;97016.72;10456974;28;20476;-23
2022/05/28 04:35:20;;;;;;;2.53;1.60;;;;;;;17.77;56.67;97015.88;10467511;28;20041;-23
2022/05/28 04:40:21;;;;;;;2.20;1.53;;;;;;;17.79;56.60;97014.19;10487783;28;20291;-23
2022/05/28 04:45:21;;;;;;;2.22;1.73;;;;;;;17.75;56.69;97015.03;10456776;28;20025;-23
2022/05/28 04:50:21;;;;;;;3.27;1.80;;;;;;;17.76;56.52;97014.19;10475912;28;20072;-21
2022/05/28 04:55:22;;;;;;;2.83;1.90;;;;;;;17.71;56.95;97014.16;10486791;28;20414;-23
2022/05/28 05:00:25;;;;;;;1.70;1.55;;;;;;;17.91;56.57;97015.13;10459437;28;20377;-23
2022/05/28 05:05:27;;;;;;;2.13;1.92;;;;;;;18.01;56.14;97010.97;10480298;28;20045;-22
2022/05/28 05:10:27;;;;;;;3.20;1.90;;;;;;;17.93;56.53;97023.56;10466279;28;20040;-22
2022/05/28 05:15:27;;;;;;;3.10;1.90;;;;;;;17.91;56.41;97019.38;10496718;28;20453;-22
2022/05/28 05:20:28;;;;;;;3.20;1.87;;;;;;;17.87;56.45;97023.56;10472111;28;20283;-22
2022/05/28 05:25:28;;;;;;;2.37;1.63;;;;;;;17.86;56.76;97026.06;10453629;28;20302;-21
2022/05/28 05:30:29;;;;;;;2.47;1.57;;;;;;;17.72;56.91;97010.78;10459692;28;20401;-22
2022/05/28 05:35:29;;;;;;;2.22;1.63;;;;;;;17.75;57.35;97030.22;10478939;28;20298;-22
2022/05/28 05:40:30;;;;;;;3.30;2.10;;;;;;;17.75;57.16;97035.28;10453974;28;20033;-23
2022/05/28 05:45:30;;;;;;;4.27;2.77;;;;;;;17.66;57.34;97022.53;10453229;28;20028;-23
2022/05/28 05:50:30;;;;;;;2.30;1.75;;;;;;;17.77;56.94;97031.06;10474308;28;20046;-24
2022/05/28 05:55:31;;;;;;;3.67;2.20;;;;;;;17.87;56.88;97031.16;10482991;28;20033;-23
2022/05/28 06:00:31;;;;;;;3.70;1.87;;;;;;;18.01;56.36;97028.72;10453716;28;20445;-24
2022/05/28 06:05:32;;;;;;;3.50;2.20;;;;;;;17.99;56.31;97027.88;10452712;28;20405;-22
2022/05/28 06:10:32;;;;;;;3.63;2.28;;;;;;;17.96;56.52;97020.22;10452983;28;20111;-21
2022/05/28 06:15:32;;;;;;;3.07;1.80;;;;;;;17.89;57.07;97026.06;10451133;28;20041;-23
2022/05/28 06:20:34;;;;;;;2.80;1.90;;;;;;;17.87;57.06;97027.75;10459216;28;20025;-21
2022/05/28 06:25:37;;;;;;;4.35;2.38;;;;;;;17.83;57.04;97026.88;10460963;28;20298;-23
2022/05/28 06:30:40;;;;;;;5.47;2.40;;;;;;;17.90;57.11;97035.41;10453669;28;20037;-25
2022/05/28 06:35:40;;;;;;;5.75;2.35;;;;;;;17.81;57.40;97027.69;10455721;28;20037;-23
2022/05/28 06:40:41;;;;;;;4.43;2.20;;;;;;;17.74;57.33;97010.78;10457493;28;20515;-22
2022/05/28 06:45:41;;;;;;;4.35;2.25;;;;;;;17.76;57.32;97026.84;10473349;28;20040;-22
2022/05/28 06:56:02;;;;;;;3.45;1.98;;;;;;;17.90;57.06;97017.66;10453279;28;20466;-21
2022/05/28 07:01:04;;;;;;;9.40;2.53;;;;;;;18.05;56.98;97017.75;10452228;28;20079;-23
2022/05/28 07:06:04;;;;;;;3.15;2.10;;;;;;;17.93;56.67;97023.56;10471818;28;20036;-22
2022/05/28 07:11:07;;;;;;;4.18;2.13;;;;;;;17.58;57.96;97016.56;10472677;28;20244;-22
2022/05/28 07:16:08;;;;;;;5.90;2.00;;;;;;;17.86;56.92;97014.25;10465567;28;20037;-23
2022/05/28 07:21:10;;;;;;;5.50;2.20;;;;;;;17.73;57.25;97015.00;10482780;28;20398;-23
2022/05/28 07:26:17;;;;;;;3.78;2.00;;;;;;;17.79;57.24;97017.59;10477695;28;20490;-24
2022/05/28 07:31:20;;;;;;;5.03;2.08;;;;;;;17.89;56.94;97016.81;10487866;28;20041;-23
2022/05/28 07:36:22;;;;;;;7.07;2.55;;;;;;;18.21;56.09;97019.53;10449511;28;20041;-23
2022/05/28 07:41:25;;;;;;;5.97;2.10;;;;;;;18.30;55.05;97009.47;10461281;28;20462;-22
2022/05/28 07:46:28;;;;;;;6.32;2.20;;;;;;;18.32;53.57;97007.81;10449329;28;20522;-22
2022/05/28 07:51:29;;;;;;;8.52;2.55;;;;;;;18.27;53.43;96999.31;10478943;28;20032;-22
2022/05/28 07:56:29;;;;;;;3.63;2.28;;;;;;;18.14;55.19;97007.66;10467430;28;20509;-22
2022/05/28 08:01:36;;;;;;;4.68;2.05;;;;;;;17.98;55.80;96999.13;10449646;28;20037;-22
2022/05/28 08:06:38;;;;;;;5.80;2.05;;;;;;;17.98;55.61;97004.19;10448260;28;20475;-22
2022/05/28 08:11:39;;;;;;;10.88;2.63;;;;;;;17.96;55.99;97002.50;10464940;28;20111;-23
2022/05/28 08:16:40;;;;;;;13.90;2.40;;;;;;;18.02;55.92;97007.59;10490103;28;20166;-23
2022/05/28 08:27:00;;;;;;;7.40;2.55;;;;;;;17.99;55.02;96987.31;10482341;28;20037;-21
2022/05/28 08:32:00;;;;;;;8.23;2.00;;;;;;;18.04;55.04;96993.25;10502883;28;20103;-24
2022/05/28 08:37:00;;;;;;;7.87;2.03;;;;;;;18.04;54.73;96990.72;10466247;28;20388;-24
2022/05/28 08:42:01;;;;;;;6.20;2.28;;;;;;;18.05;54.62;96992.41;10458281;28;20559;-25
2022/05/28 08:47:37;;;;;;;5.23;2.00;;;;;;;17.91;55.27;96994.84;10489523;28;20037;-23
2022/05/28 08:52:55;;;;;;;5.28;2.22;;;;;;;18.03;53.40;96981.44;10484922;28;20571;-23
2022/05/28 08:58:01;;;;;;;6.85;1.95;;;;;;;18.04;53.85;96989.03;10458041;28;20061;-22
2022/05/28 09:03:09;;;;;;;6.05;2.03;;;;;;;18.04;53.48;96980.59;10453979;28;20403;-22
2022/05/28 09:08:10;;;;;;;2.40;1.90;;;;;;;18.02;53.80;96982.28;10455938;28;20119;-22
2022/05/28 09:13:20;;;;;;;4.95;1.85;;;;;;;18.02;53.44;96969.59;10459280;28;20049;-24
2022/05/28 09:18:22;;;;;;;4.95;2.00;;;;;;;18.18;53.02;96968.84;10484634;28;20025;-23
2022/05/28 09:23:22;;;;;;;6.32;1.92;;;;;;;18.06;53.89;96963.69;10492261;28;20064;-21
2022/05/28 09:28:35;;;;;;;4.75;2.00;;;;;;;17.81;54.33;96961.84;10494614;28;20213;-23
2022/05/28 09:33:51;;;;;;;5.78;1.80;;;;;;;17.66;54.36;96962.59;10492944;28;20044;-23
2022/05/28 09:39:22;;;;;;;6.53;1.67;;;;;;;17.78;53.19;96951.72;10496049;28;20025;-22
2022/05/28 09:44:43;;;;;;;9.13;1.88;;;;;;;17.70;53.06;96955.88;10491002;28;20064;-22
2022/05/28 09:49:55;;;;;;;5.90;2.08;;;;;;;17.89;52.10;96950.09;10494125;28;20037;-23
2022/05/28 09:55:16;;;;;;;5.32;2.05;;;;;;;17.96;51.13;96950.16;10459550;28;20372;-23
2022/05/28 10:00:16;;;;;;;5.10;1.40;;;;;;;17.94;52.21;96953.50;10453354;28;20103;-22
2022/05/28 10:05:20;;;;;;;4.03;1.27;;;;;;;17.97;51.24;96948.44;10452229;28;20086;-23
2022/05/28 10:10:31;;;;;;;12.60;2.95;;;;;;;17.96;51.48;96941.69;10482979;28;20129;-23
2022/05/28 10:15:37;;;;;;;7.18;1.80;;;;;;;17.77;52.33;96939.91;10452822;28;20032;-24
2022/05/28 10:20:38;;;;;;;6.88;1.65;;;;;;;17.76;52.31;96935.69;10489443;28;20406;-21
2022/05/28 10:25:48;;;;;;;5.88;1.50;;;;;;;17.81;51.95;96936.53;10492776;28;20043;-21
2022/05/28 10:30:49;;;;;;;4.55;1.92;;;;;;;17.76;51.86;96928.09;10474095;28;20407;-22
2022/05/28 10:35:49;;;;;;;4.63;1.63;;;;;;;17.79;51.52;96917.97;10465830;28;20029;-22
2022/05/28 10:41:00;;;;;;;5.13;1.33;;;;;;;17.96;50.00;96926.50;10477078;28;20063;-22
2022/05/28 10:46:10;;;;;;;5.55;1.63;;;;;;;17.78;50.84;96918.81;10451240;28;20410;-21
2022/05/28 10:51:46;;;;;;;5.07;1.40;;;;;;;17.91;50.71;96915.50;10478985;28;20098;-22
2022/05/28 10:57:11;;;;;;;8.35;1.75;;;;;;;17.85;50.03;96913.78;10452747;28;20048;-22
2022/05/28 11:02:26;;;;;;;4.05;1.48;;;;;;;17.85;50.22;96903.66;10451900;28;20424;-21
2022/05/28 11:07:29;;;;;;;4.32;1.20;;;;;;;17.91;49.54;96880.03;10451536;28;20044;-22
2022/05/28 11:12:50;;;;;;;3.50;1.90;;;;;;;17.89;50.56;96879.16;10477314;28;20040;-22
2022/05/28 11:18:11;;;;;;;3.78;1.27;;;;;;;17.75;50.72;96852.97;10492094;28;20020;-23
2022/05/28 11:23:30;;;;;;;3.63;1.42;;;;;;;17.76;50.57;96883.31;10455615;28;20106;-24
2022/05/28 11:28:57;;;;;;;5.72;1.75;;;;;;;17.81;50.90;96876.63;10488031;28;20040;-24
2022/05/28 11:34:04;;;;;;;;;;;;;;;17.85;51.02;96863.16;10489783;28;20032;-23
2022/05/28 11:39:12;;;;;;;7.88;1.35;;;;;;;18.02;48.87;96856.47;10490742;28;20450;-22
2022/05/28 11:44:31;;;;;;;6.32;1.33;;;;;;;17.98;50.11;96859.81;10450325;28;20122;-21
2022/05/28 11:55:03;;;;;;;3.05;1.08;;;;;;;17.98;50.53;96833.66;10484611;28;20041;-23
2022/05/28 12:00:07;;;;;;;1.30;0.90;;;;;;;17.91;50.19;96832.75;10449103;28;20112;-22
2022/05/28 12:05:23;;;;;;;2.47;0.90;;;;;;;17.93;50.94;96830.25;10449041;28;20041;-23
2022/05/28 12:10:48;;;;;;;2.20;0.98;;;;;;;17.93;50.62;96830.25;10449189;28;20037;-22
2022/05/28 12:15:49;;;;;;;1.92;1.00;;;;;;;18.02;50.22;96825.19;10449218;28;20075;-23
2022/05/28 12:20:50;;;;;;;2.92;1.00;;;;;;;18.02;50.40;96815.06;10451411;28;20028;-21
2022/05/28 12:25:51;;;;;;;1.75;0.80;;;;;;;18.03;50.13;96814.22;10449411;28;20458;-22
2022/05/28 12:30:54;;;;;;;2.70;1.25;;;;;;;18.08;49.88;96807.50;10448967;28;20083;-23
2022/05/28 12:36:18;;;;;;;3.25;1.00;;;;;;;18.08;50.07;96800.72;10452124;28;20037;-22
2022/05/28 12:41:21;;;;;;;2.30;0.98;;;;;;;18.15;50.33;96794.00;10456740;28;20384;-22
2022/05/28 12:46:41;;;;;;;1.88;0.70;;;;;;;18.19;50.14;96790.63;10456560;28;20120;-23
2022/05/28 12:52:07;;;;;;;4.40;1.17;;;;;;;18.27;50.25;96786.41;10474382;28;20412;-22
2022/05/28 12:57:10;;;;;;;3.40;0.95;;;;;;;18.08;51.07;96774.56;10456131;28;20392;-22
2022/05/28 13:02:16;;;;;;;2.72;0.68;;;;;;;18.02;50.55;96765.25;10456025;28;20095;-23
2022/05/28 13:07:24;;;;;;;2.83;1.30;;;;;;;18.05;50.84;96754.25;10485196;28;20487;-22
2022/05/28 13:12:32;;;;;;;2.80;0.90;;;;;;;18.05;50.48;96749.19;10469635;28;20072;-22
2022/05/28 13:18:14;;;;;;;4.28;0.73;;;;;;;18.23;50.33;96739.09;10457686;28;20078;-21
2022/05/28 13:23:40;;;;;;;1.42;0.55;;;;;;;18.17;50.88;96739.09;10454619;28;20406;-22
2022/05/28 13:28:58;;;;;;;2.70;0.70;;;;;;;18.21;50.69;96736.56;10491369;28;20521;-24
2022/05/28 13:33:59;;;;;;;3.92;1.13;;;;;;;18.18;51.04;96730.66;10495057;28;20028;-23
2022/05/28 13:39:01;;;;;;;3.60;0.93;;;;;;;18.07;50.58;96719.66;10462442;28;20017;-23
2022/05/28 13:44:09;;;;;;;3.22;0.73;;;;;;;18.07;50.09;96712.06;10492906;28;20123;-22
2022/05/28 13:49:10;;;;;;;5.97;1.20;;;;;;;18.21;50.73;96711.22;10487581;28;20063;-24
2022/05/28 13:54:11;;;;;;;4.72;0.75;;;;;;;18.32;50.75;96701.16;10469423;28;20052;-24
2022/05/28 13:59:12;;;;;;;10.20;1.15;;;;;;;18.33;50.55;96697.75;10453178;28;20483;-21
2022/05/28 14:04:23;;;;;;;2.40;0.90;;;;;;;18.18;49.73;96697.72;10453951;28;20040;-23
2022/05/28 14:09:43;;;;;;;2.55;1.05;;;;;;;18.11;49.52;96688.41;10453986;28;20492;-24
2022/05/28 14:14:45;;;;;;;4.35;1.20;;;;;;;18.06;49.76;96690.94;10456857;28;20041;-21
2022/05/28 14:19:52;;;;;;;2.03;0.85;;;;;;;18.21;50.45;96692.63;10464094;28;20740;-22
2022/05/28 14:24:54;;;;;;;6.13;0.98;;;;;;;18.22;49.93;96686.72;10452533;28;20517;-22
2022/05/28 14:29:57;;;;;;;17.25;2.05;;;;;;;18.41;43.37;96683.41;10489037;28;20101;-23
2022/05/28 14:34:58;;;;;;;9.07;1.60;;;;;;;18.35;48.93;96680.84;10476170;28;20072;-22
2022/05/28 14:40:00;;;;;;;4.70;1.08;;;;;;;18.29;49.74;96678.28;10451796;28;20672;-23
2022/05/28 14:45:07;;;;;;;8.85;1.27;;;;;;;18.52;47.93;96677.47;10445948;28;20392;-22
2022/05/28 14:50:08;;;;;;;1.13;0.70;;;;;;;18.52;49.49;96672.41;10503707;28;20029;-23
2022/05/28 14:55:11;;;;;;;3.17;1.00;;;;;;;18.41;50.04;96663.13;10458252;28;20500;-22
2022/05/28 15:00:28;;;;;;;5.63;1.67;;;;;;;18.33;50.39;96664.81;10490711;28;20032;-22
2022/05/28 15:05:29;;;;;;;2.17;0.57;;;;;;;18.14;48.09;96650.41;10462472;28;20032;-22
2022/05/28 15:10:53;;;;;;;2.83;0.73;;;;;;;18.13;46.90;96651.25;10450980;28;20158;-22
2022/05/28 15:15:55;;;;;;;3.97;0.70;;;;;;;18.24;49.29;96652.13;10449934;28;20124;-23
2022/05/28 15:20:58;;;;;;;2.70;0.68;;;;;;;18.13;48.62;96646.19;10479573;28;20032;-22
2022/05/28 15:25:59;;;;;;;1.30;0.70;;;;;;;18.16;49.32;96633.53;10475851;28;20526;-24
2022/05/28 15:31:00;;;;;;;1.48;0.68;;;;;;;18.22;49.03;96641.09;10450534;28;20036;-22
2022/05/28 15:41:20;;;;;;;3.67;0.85;;;;;;;18.32;49.75;96623.41;10473971;28;20029;-24
2022/05/28 15:46:20;;;;;;;2.38;0.70;;;;;;;18.24;48.37;96609.03;10448988;28;20562;-23
2022/05/28 15:51:20;;;;;;;2.72;0.55;;;;;;;18.22;47.62;96605.63;10477830;28;20070;-23
2022/05/28 15:56:21;;;;;;;2.40;0.70;;;;;;;18.14;46.97;96598.06;10472073;28;20037;-23
2022/05/28 16:01:24;;;;;;;2.53;0.80;;;;;;;18.31;49.14;96603.13;10449245;28;20040;-23
2022/05/28 16:06:26;;;;;;;4.72;0.70;;;;;;;18.25;49.21;96595.50;10448716;28;20045;-24
2022/05/28 16:11:29;;;;;;;1.83;0.52;;;;;;;18.15;48.38;96582.00;10472908;28;20042;-22
2022/05/28 16:16:29;;;;;;;1.52;0.88;;;;;;;18.20;48.89;96587.06;10498202;28;20032;-24
2022/05/28 16:21:30;;;;;;;1.87;0.60;;;;;;;18.29;49.51;96587.03;10475922;28;20138;-25
2022/05/28 16:26:31;;;;;;;1.33;0.60;;;;;;;18.33;49.31;96588.78;10475686;28;20032;-24
2022/05/28 16:31:32;;;;;;;2.05;0.60;;;;;;;18.29;49.53;96577.81;10499135;28;20090;-25
2022/05/28 16:36:32;;;;;;;2.28;0.60;;;;;;;18.36;49.38;96582.03;10458271;28;20041;-23
2022/05/28 16:41:34;;;;;;;1.83;0.83;;;;;;;18.38;49.05;96571.84;10456145;28;20037;-24
2022/05/28 16:46:34;;;;;;;2.08;0.57;;;;;;;18.46;49.08;96565.09;10455683;28;20427;-23
2022/05/28 16:51:35;;;;;;;1.47;0.60;;;;;;;18.34;49.36;96550.75;10464120;28;20368;-22
2022/05/28 16:56:44;;;;;;;1.77;0.80;;;;;;;18.32;49.48;96572.72;10455520;28;20060;-24
2022/05/28 17:01:45;;;;;;;1.08;0.40;;;;;;;18.31;49.78;96565.97;10455914;28;20040;-24
2022/05/28 17:06:45;;;;;;;1.83;0.80;;;;;;;18.31;49.84;96565.09;10455458;28;20035;-22
2022/05/28 17:11:48;;;;;;;2.97;0.87;;;;;;;18.29;49.61;96561.72;10455108;28;20029;-23
2022/05/28 17:16:49;;;;;;;3.92;0.90;;;;;;;18.41;49.42;96554.94;10455156;28;20032;-23
2022/05/28 17:21:49;;;;;;;3.03;0.80;;;;;;;18.38;49.65;96556.66;10490892;28;20059;-23
2022/05/28 17:26:50;;;;;;;1.83;0.70;;;;;;;18.28;49.91;96549.88;10473439;28;20037;-24
2022/05/28 17:31:51;;;;;;;1.33;0.70;;;;;;;18.24;50.12;96559.19;10455029;28;20084;-22
2022/05/28 17:36:51;;;;;;;2.17;1.05;;;;;;;18.22;50.06;96558.34;10454541;28;20462;-25
2022/05/28 17:41:52;;;;;;;2.30;1.08;;;;;;;18.23;49.92;96559.16;10454805;28;20040;-22
2022/05/28 17:46:52;;;;;;;1.83;1.00;;;;;;;18.33;49.45;96555.84;10454221;28;20037;-24
2022/05/28 17:51:53;;;;;;;2.47;0.90;;;;;;;18.35;49.16;96556.66;10486976;28;20043;-24
2022/05/28 17:56:53;;;;;;;2.83;1.10;;;;;;;18.24;49.50;96559.19;10493989;28;20051;-23
2022/05/28 18:01:54;;;;;;;3.47;1.00;;;;;;;18.28;49.26;96565.09;10495177;28;20518;-23
2022/05/28 18:06:54;;;;;;;2.63;1.23;;;;;;;18.22;49.58;96565.94;10465031;28;20380;-24
2022/05/28 18:11:55;;;;;;;2.53;1.00;;;;;;;18.21;49.81;96558.34;10475357;28;20048;-22
2022/05/28 18:16:55;;;;;;;1.90;0.97;;;;;;;18.20;49.59;96551.59;10494344;28;20658;-22
2022/05/28 18:21:56;;;;;;;2.42;0.70;;;;;;;18.15;50.34;96558.38;10492184;28;20541;-23
2022/05/28 18:26:58;;;;;;;2.38;0.80;;;;;;;18.14;49.88;96559.19;10470490;28;20415;-23
2022/05/28 18:31:58;;;;;;;1.52;0.80;;;;;;;18.13;50.04;96560.03;10453262;28;20484;-23
2022/05/28 18:37:00;;;;;;;3.05;0.73;;;;;;;18.09;49.97;96554.13;10481183;28;20036;-23
2022/05/28 18:42:02;;;;;;;1.17;0.80;;;;;;;18.12;49.64;96553.28;10469237;28;20096;-23
2022/05/28 18:47:03;;;;;;;1.88;0.82;;;;;;;18.18;49.19;96550.75;10451081;28;20029;-24
2022/05/28 18:52:05;;;;;;;2.17;0.55;;;;;;;18.07;49.70;96557.53;10486051;28;20044;-22
2022/05/28 18:57:09;;;;;;;3.47;0.90;;;;;;;18.01;49.74;96555.81;10467392;28;20262;-25
2022/05/28 19:02:12;;;;;;;3.28;0.90;;;;;;;17.94;49.45;96549.09;10451420;28;20550;-24
2022/05/28 19:07:25;;;;;;;1.90;0.80;;;;;;;17.90;49.52;96551.63;10450854;28;20091;-23
2022/05/28 19:12:33;;;;;;;2.05;0.70;;;;;;;17.83;49.49;96545.72;10451057;28;20083;-23
2022/05/28 19:17:33;;;;;;;2.47;0.80;;;;;;;17.83;49.15;96544.88;10452104;28;20091;-24
2022/05/28 19:22:36;;;;;;;1.77;0.80;;;;;;;17.82;48.65;96558.41;10450602;28;20033;-23
2022/05/28 19:27:42;;;;;;;3.28;1.20;;;;;;;17.79;49.06;96554.16;10450332;28;20042;-23
2022/05/28 19:32:42;;;;;;;4.43;0.90;;;;;;;17.70;48.68;96544.03;10450926;28;20127;-23
2022/05/28 19:37:45;;;;;;;3.83;1.10;;;;;;;17.82;48.37;96563.47;10479657;28;20533;-25
2022/05/28 19:42:51;;;;;;;2.45;1.63;;;;;;;17.96;48.09;96556.69;10487617;28;20035;-24
2022/05/28 19:48:00;;;;;;;1.83;0.70;;;;;;;17.93;47.97;96551.63;10489613;28;20036;-23
2022/05/28 19:53:01;;;;;;;2.25;1.00;;;;;;;17.85;47.68;96558.38;10461943;28;20086;-25
2022/05/28 19:58:01;;;;;;;3.57;0.90;;;;;;;17.82;47.39;96558.41;10479476;28;20078;-24
2022/05/28 20:03:02;;;;;;;1.55;0.95;;;;;;;17.80;47.35;96570.19;10490615;28;20038;-23
2022/05/28 20:08:02;;;;;;;1.67;0.88;;;;;;;17.79;47.66;96568.50;10453430;28;20071;-23
2022/05/28 20:13:04;;;;;;;1.65;1.27;;;;;;;17.80;47.56;96557.53;10449548;28;20033;-23
2022/05/28 20:18:05;;;;;;;3.15;1.17;;;;;;;17.77;47.25;96552.47;10452015;28;20078;-23
2022/05/28 20:23:07;;;;;;;3.38;0.93;;;;;;;17.79;47.19;96555.84;10449182;28;20369;-23
2022/05/28 20:28:08;;;;;;;5.28;0.98;;;;;;;17.83;47.30;96547.41;10470546;28;20036;-23
2022/05/28 20:33:10;;;;;;;1.83;0.70;;;;;;;17.78;47.04;96546.56;10487299;28;20033;-23
2022/05/28 20:38:10;;;;;;;1.58;0.82;;;;;;;17.86;47.55;96542.34;10449416;28;20029;-24
2022/05/28 20:43:11;;;;;;;3.00;1.00;;;;;;;17.93;47.19;96538.97;10471124;28;20025;-22
2022/05/28 20:48:18;;;;;;;2.65;0.90;;;;;;;17.93;47.14;96532.19;10451151;28;20432;-24
2022/05/28 20:53:38;;;;;;;0.80;0.60;;;;;;;17.91;47.14;96533.06;10467960;28;20661;-25
2022/05/28 20:58:40;;;;;;;3.97;0.88;;;;;;;17.86;47.20;96524.59;10454227;28;20037;-23
2022/05/28 21:03:43;;;;;;;1.52;0.88;;;;;;;17.85;47.00;96515.31;10456394;28;20040;-24
2022/05/28 21:08:43;;;;;;;2.92;1.10;;;;;;;17.84;47.10;96518.72;10494330;28;20031;-25
2022/05/28 21:13:45;;;;;;;4.27;0.97;;;;;;;17.79;46.97;96512.78;10459348;28;20036;-23
2022/05/28 21:18:46;;;;;;;2.25;0.60;;;;;;;17.80;46.90;96504.34;10467594;28;20381;-24
2022/05/28 21:23:48;;;;;;;3.42;0.95;;;;;;;17.81;47.26;96511.09;10496318;28;20401;-23
2022/05/28 21:34:07;;;;;;;3.95;1.05;;;;;;;17.77;47.33;96496.75;10486600;28;20056;-24
2022/05/28 21:39:08;;;;;;;1.85;0.60;;;;;;;17.82;47.38;96495.09;10454057;28;20044;-25
2022/05/28 21:44:08;;;;;;;1.65;0.70;;;;;;;17.87;47.34;96495.91;10454278;28;20102;-23
2022/05/28 21:49:10;;;;;;;2.27;1.23;;;;;;;17.83;47.32;96486.63;10463970;28;20036;-25
2022/05/28 21:54:18;;;;;;;3.80;1.10;;;;;;;17.91;45.55;96498.44;10486307;28;20046;-25
2022/05/28 21:59:18;;;;;;;2.65;1.00;;;;;;;17.68;46.11;96484.94;10487727;28;20029;-24
2022/05/28 22:04:19;;;;;;;4.87;1.33;;;;;;;17.69;47.12;96481.59;10459341;28;20040;-27
2022/05/28 22:09:19;;;;;;;3.08;0.70;;;;;;;17.68;47.55;96479.06;10474982;28;20036;-23
2022/05/28 22:14:20;;;;;;;2.65;0.90;;;;;;;17.66;46.96;96470.63;10461051;28;20029;-23
2022/05/28 22:19:22;;;;;;;1.63;0.80;;;;;;;17.64;46.83;96462.16;10457281;28;20037;-23
2022/05/28 22:24:22;;;;;;;2.47;0.77;;;;;;;17.65;46.94;96463.88;10474098;28;20070;-24
2022/05/28 22:29:24;;;;;;;2.53;0.97;;;;;;;17.69;46.99;96468.06;10449687;28;20033;-24
2022/05/28 22:34:25;;;;;;;2.78;0.90;;;;;;;17.61;46.74;96457.13;10452056;28;20385;-22
2022/05/28 22:39:26;;;;;;;2.72;0.77;;;;;;;17.76;46.79;96452.03;10451975;28;20475;-22
2022/05/28 22:49:45;;;;;;;3.25;1.00;;;;;;;17.69;47.03;96440.22;10475498;28;20406;-23
2022/05/28 22:54:46;;;;;;;2.35;0.80;;;;;;;17.62;46.94;96428.41;10487292;28;20195;-22
2022/05/28 22:59:46;;;;;;;2.13;0.80;;;;;;;17.53;47.12;96413.25;10451423;28;20040;-23
2022/05/28 23:04:49;;;;;;;2.63;0.90;;;;;;;17.55;47.30;96422.53;10455947;28;20042;-23
2022/05/28 23:09:49;;;;;;;3.60;1.20;;;;;;;17.55;47.58;96411.53;10488931;28;20111;-23
2022/05/28 23:14:49;;;;;;;2.08;0.75;;;;;;;17.55;47.00;96407.34;10491468;28;20036;-22
2022/05/28 23:19:50;;;;;;;3.57;0.80;;;;;;;17.59;47.36;96398.06;10484435;28;20475;-23
2022/05/28 23:30:09;;;;;;;2.63;0.80;;;;;;;17.48;47.40;96377.00;10450495;28;20124;-22
2022/05/28 23:35:10;;;;;;;4.35;1.13;;;;;;;17.53;47.30;96383.72;10450088;28;20202;-23
2022/05/28 23:40:11;;;;;;;3.05;0.95;;;;;;;17.68;47.33;96376.09;10456886;28;20024;-23
2022/05/28 23:45:11;;;;;;;2.95;1.00;;;;;;;17.76;47.17;96374.38;10490701;28;20036;-24
2022/05/28 23:50:14;;;;;;;1.83;0.90;;;;;;;17.60;46.99;96359.25;10470901;28;20069;-23
2022/05/28 23:55:17;;;;;;;3.55;0.90;;;;;;;17.58;47.25;96363.47;10449220;28;20534;-22
